Aviation Digital Data Service (ADDS)

Output produced by TAFs form (2332 UTC 25 May 2015)
found at http://aviationweather.gov/adds/tafs/
 
KCNM 251902Z 2519/2618 24012G17KT P6SM FEW150 
     FM260200 26008KT P6SM FEW250